Time;durP1;ratioP1;P1;durP2;ratioP2;P2;SDS_P1;SDS_P2;PMS_P1;PMS_P2;Temp;Humidity;BMP_temperature;BMP_pressure;BME280_temperature;BME280_humidity;BME280_pressure;Samples;Min_cycle;Max_cycle;Signal;HPM_P1;HPM_P2
2023/03/31 00:00:37;;;;;;;5.37;1.70;;;11.90;99.90;;;;;;10387703;28;20295;-66
2023/03/31 00:05:38;;;;;;;4.43;1.53;;;11.90;99.90;;;;;;10430467;28;20292;-67
2023/03/31 00:10:45;;;;;;;7.93;1.60;;;11.90;99.90;;;;;;10395429;28;20252;-67
2023/03/31 00:15:49;;;;;;;5.70;1.83;;;11.90;99.90;;;;;;10393601;28;20723;-66
2023/03/31 00:20:51;;;;;;;4.43;1.63;;;11.90;99.90;;;;;;10426663;28;20220;-65
2023/03/31 00:25:53;;;;;;;5.00;1.80;;;12.00;99.90;;;;;;10391095;28;20213;-65
2023/03/31 00:31:00;;;;;;;5.63;1.40;;;12.00;99.90;;;;;;10394030;28;20319;-65
2023/03/31 00:36:04;;;;;;;6.20;1.73;;;12.00;99.90;;;;;;10423711;28;20752;-65
2023/03/31 00:41:05;;;;;;;4.63;1.80;;;11.90;99.90;;;;;;10395168;28;20797;-67
2023/03/31 00:46:14;;;;;;;4.10;1.50;;;11.90;99.90;;;;;;10422365;28;20221;-68
2023/03/31 00:51:15;;;;;;;3.77;1.33;;;11.80;99.90;;;;;;10387441;28;20727;-68
2023/03/31 00:56:16;;;;;;;6.50;2.00;;;11.80;99.90;;;;;;10395765;28;20223;-68
2023/03/31 01:01:23;;;;;;;6.93;1.60;;;11.80;99.90;;;;;;10384022;28;20296;-75
2023/03/31 01:06:24;;;;;;;8.80;1.90;;;11.80;99.90;;;;;;10385628;28;20292;-75
2023/03/31 01:11:26;;;;;;;4.33;1.57;;;11.90;99.90;;;;;;10395714;28;20231;-75
2023/03/31 01:16:27;;;;;;;6.83;1.93;;;12.00;99.90;;;;;;10388584;28;20228;-75
2023/03/31 01:21:29;;;;;;;7.17;2.07;;;11.90;99.90;;;;;;10394879;28;20217;-74
2023/03/31 01:26:54;;;;;;;6.73;2.10;;;12.00;99.90;;;;;;10388392;28;20221;-74
2023/03/31 01:32:00;;;;;;;7.40;2.13;;;11.90;99.90;;;;;;10422840;28;20287;-73
2023/03/31 01:37:20;;;;;;;6.97;1.80;;;11.90;99.90;;;;;;10418738;28;20894;-72
2023/03/31 01:42:29;;;;;;;5.80;2.03;;;11.80;99.90;;;;;;10386765;28;20558;-70
2023/03/31 01:47:44;;;;;;;4.17;1.60;;;11.80;99.90;;;;;;10380850;28;20313;-73
2023/03/31 01:52:45;;;;;;;5.43;2.10;;;11.80;99.90;;;;;;10391166;28;20224;-71
2023/03/31 01:57:52;;;;;;;10.83;2.17;;;11.70;99.90;;;;;;10385871;28;20221;-72
2023/03/31 02:03:01;;;;;;;7.03;1.80;;;11.60;99.90;;;;;;10391246;28;20255;-73
2023/03/31 02:08:28;;;;;;;7.03;2.00;;;11.50;99.90;;;;;;10388657;28;20221;-74
2023/03/31 02:13:33;;;;;;;7.33;1.90;;;11.40;99.90;;;;;;10381761;28;20312;-71
2023/03/31 02:18:36;;;;;;;8.63;2.33;;;11.50;99.90;;;;;;10378948;28;20229;-70
2023/03/31 02:23:37;;;;;;;8.30;2.73;;;11.60;99.90;;;;;;10386556;28;20205;-71
2023/03/31 02:28:38;;;;;;;9.53;2.20;;;11.60;99.90;;;;;;10390335;28;20219;-72
2023/03/31 02:33:39;;;;;;;11.97;2.10;;;11.70;99.90;;;;;;10387256;28;20229;-75
2023/03/31 02:38:45;;;;;;;8.53;2.00;;;11.80;99.90;;;;;;10390441;28;20231;-73
2023/03/31 02:43:45;;;;;;;6.83;2.00;;;11.80;99.90;;;;;;10386320;28;20244;-73
2023/03/31 02:48:51;;;;;;;6.03;2.00;;;11.90;99.90;;;;;;10414915;28;20212;-73
2023/03/31 02:54:18;;;;;;;7.70;2.60;;;11.90;99.90;;;;;;10386535;28;20297;-72
2023/03/31 02:59:44;;;;;;;9.97;2.27;;;11.90;99.90;;;;;;10385536;28;20560;-74
2023/03/31 03:04:58;;;;;;;10.17;2.80;;;11.90;99.90;;;;;;10381061;28;20217;-74
2023/03/31 03:10:27;;;;;;;6.53;1.97;;;11.80;99.90;;;;;;10383942;28;20224;-74
2023/03/31 03:15:33;;;;;;;10.23;2.17;;;11.70;99.90;;;;;;10382083;28;20669;-71
2023/03/31 03:20:34;;;;;;;6.40;1.90;;;11.60;99.90;;;;;;10388680;28;20584;-73
2023/03/31 03:25:35;;;;;;;7.27;2.50;;;11.50;99.90;;;;;;10383369;28;20780;-74
2023/03/31 03:30:36;;;;;;;8.63;2.47;;;11.50;99.90;;;;;;10416112;28;20252;-71
2023/03/31 03:35:36;;;;;;;8.33;2.67;;;11.40;99.90;;;;;;10392797;28;20208;-73
2023/03/31 03:40:37;;;;;;;8.33;2.30;;;11.40;99.90;;;;;;10397382;28;20232;-73
2023/03/31 03:45:37;;;;;;;8.17;2.57;;;11.40;99.90;;;;;;10389603;28;20715;-72
2023/03/31 03:50:38;;;;;;;7.50;2.60;;;11.40;99.90;;;;;;10391435;28;20215;-72
2023/03/31 03:55:39;;;;;;;6.87;2.23;;;11.40;99.90;;;;;;10392741;28;20292;-72
2023/03/31 04:00:39;;;;;;;5.67;1.80;;;11.30;99.90;;;;;;10396024;28;20212;-73
2023/03/31 04:05:40;;;;;;;9.33;2.73;;;11.30;99.90;;;;;;10393006;28;20214;-72
2023/03/31 04:10:46;;;;;;;6.20;2.27;;;11.30;99.90;;;;;;10396175;28;20760;-69
2023/03/31 04:15:49;;;;;;;9.57;2.47;;;11.30;99.90;;;;;;10391701;28;20220;-75
2023/03/31 04:21:03;;;;;;;7.47;2.40;;;11.20;99.90;;;;;;10394183;28;20267;-72
2023/03/31 04:26:07;;;;;;;8.47;2.13;;;11.20;99.90;;;;;;10390351;28;20221;-73
2023/03/31 04:31:09;;;;;;;4.93;2.10;;;11.20;99.90;;;;;;10390060;28;20217;-74
2023/03/31 04:36:18;;;;;;;7.20;2.30;;;11.20;99.90;;;;;;10390734;28;20578;-73
2023/03/31 04:41:20;;;;;;;12.03;2.63;;;11.20;99.90;;;;;;10429789;28;20702;-71
2023/03/31 04:46:25;;;;;;;9.70;2.50;;;11.20;99.90;;;;;;10388894;28;20217;-71
2023/03/31 04:51:26;;;;;;;9.13;2.27;;;11.30;99.90;;;;;;10381655;28;20220;-75
2023/03/31 04:56:27;;;;;;;7.03;2.13;;;11.30;99.90;;;;;;10391426;28;20213;-77
2023/03/31 05:01:31;;;;;;;7.47;2.50;;;11.40;99.90;;;;;;10390791;28;20213;-75
2023/03/31 05:06:32;;;;;;;6.73;1.97;;;11.40;99.90;;;;;;10426058;28;20275;-77
2023/03/31 05:11:33;;;;;;;7.10;1.93;;;11.50;99.90;;;;;;10388235;28;20221;-76
2023/03/31 05:16:33;;;;;;;6.70;2.10;;;11.40;99.90;;;;;;10425808;28;20707;-70
2023/03/31 05:21:34;;;;;;;5.50;1.70;;;11.40;99.90;;;;;;10387982;28;20220;-71
2023/03/31 05:26:34;;;;;;;6.27;2.23;;;11.40;99.90;;;;;;10380830;28;20217;-71
2023/03/31 05:31:35;;;;;;;8.40;2.10;;;11.20;99.90;;;;;;10425232;28;20669;-71
2023/03/31 05:36:36;;;;;;;7.23;2.33;;;11.10;99.90;;;;;;10388422;28;20225;-71
2023/03/31 05:41:37;;;;;;;12.07;2.20;;;10.90;99.90;;;;;;10386057;28;20685;-71
2023/03/31 05:46:37;;;;;;;11.47;2.80;;;10.80;99.90;;;;;;10391900;28;20229;-74
2023/03/31 05:51:38;;;;;;;7.43;2.77;;;10.70;99.90;;;;;;10387739;28;20235;-74
2023/03/31 05:56:39;;;;;;;10.00;2.40;;;10.50;99.90;;;;;;10422991;28;20237;-73
2023/03/31 06:01:39;;;;;;;12.97;2.80;;;10.50;99.90;;;;;;10386331;28;20225;-72
2023/03/31 06:06:43;;;;;;;12.00;3.13;;;10.40;99.90;;;;;;10391495;28;20626;-70
2023/03/31 06:11:43;;;;;;;11.47;3.13;;;10.40;99.90;;;;;;10388268;28;20250;-69
2023/03/31 06:16:46;;;;;;;11.27;3.60;;;10.50;99.90;;;;;;10389969;28;20232;-70
2023/03/31 06:21:47;;;;;;;10.83;3.60;;;10.40;99.90;;;;;;10420599;28;20259;-72
2023/03/31 06:26:50;;;;;;;13.77;3.70;;;10.40;99.90;;;;;;10384449;28;20217;-72
2023/03/31 06:31:50;;;;;;;16.37;3.90;;;10.40;99.90;;;;;;10381982;28;20216;-72
2023/03/31 06:36:52;;;;;;;10.00;4.13;;;10.30;99.90;;;;;;10392470;28;20220;-71
2023/03/31 06:41:56;;;;;;;11.37;4.87;;;10.40;99.90;;;;;;10384444;28;20242;-71
2023/03/31 06:46:56;;;;;;;11.73;4.53;;;10.50;99.90;;;;;;10379257;28;20217;-71
2023/03/31 06:51:57;;;;;;;9.80;4.70;;;10.50;99.90;;;;;;10388353;28;20632;-72
2023/03/31 06:56:58;;;;;;;11.13;4.97;;;10.70;99.90;;;;;;10415041;28;20227;-71
2023/03/31 07:01:59;;;;;;;10.40;4.43;;;10.80;99.90;;;;;;10381980;28;20212;-72
2023/03/31 07:07:00;;;;;;;9.40;4.67;;;10.80;99.90;;;;;;10387627;28;20220;-71
2023/03/31 07:12:04;;;;;;;9.53;4.20;;;10.90;99.90;;;;;;10386441;28;20241;-72
2023/03/31 07:17:04;;;;;;;8.30;3.50;;;11.10;99.90;;;;;;10388642;28;20237;-72
2023/03/31 07:22:07;;;;;;;8.03;3.80;;;11.20;99.90;;;;;;10385483;28;20241;-71
2023/03/31 07:27:07;;;;;;;9.30;4.40;;;11.20;99.90;;;;;;10388756;28;20225;-71
2023/03/31 07:32:08;;;;;;;9.67;4.60;;;11.30;99.90;;;;;;10385068;28;20225;-72
2023/03/31 07:37:09;;;;;;;9.47;4.40;;;11.20;99.90;;;;;;10383420;28;20849;-72
2023/03/31 07:42:10;;;;;;;8.07;4.03;;;11.20;99.90;;;;;;10390147;28;20638;-72
2023/03/31 07:47:10;;;;;;;8.67;4.33;;;11.30;99.90;;;;;;10376717;28;20236;-71
2023/03/31 07:52:13;;;;;;;10.57;4.60;;;11.20;99.90;;;;;;10390165;28;20268;-71
2023/03/31 07:57:16;;;;;;;10.37;4.47;;;11.20;99.90;;;;;;10421938;28;20521;-72
2023/03/31 08:02:17;;;;;;;9.97;3.90;;;11.20;99.90;;;;;;10383395;28;20693;-72
2023/03/31 08:07:18;;;;;;;6.40;3.37;;;11.30;99.90;;;;;;10390145;28;20228;-73
2023/03/31 08:12:18;;;;;;;7.13;2.90;;;11.40;99.90;;;;;;10391352;28;20224;-72
2023/03/31 08:17:19;;;;;;;3.40;2.20;;;11.60;99.90;;;;;;10382614;28;20229;-72
2023/03/31 08:22:22;;;;;;;3.27;1.60;;;12.70;99.90;;;;;;10387977;28;20304;-73
2023/03/31 08:27:22;;;;;;;6.67;1.70;;;13.80;99.90;;;;;;10413269;28;20284;-72
2023/03/31 08:32:23;;;;;;;3.90;1.80;;;14.00;99.90;;;;;;10397875;28;20227;-72
2023/03/31 08:37:27;;;;;;;3.83;1.90;;;13.70;99.90;;;;;;10387554;28;20222;-72
2023/03/31 08:42:33;;;;;;;5.47;2.00;;;13.20;99.90;;;;;;10396279;28;20794;-72
2023/03/31 08:47:37;;;;;;;5.63;2.07;;;12.70;99.90;;;;;;10389943;28;20589;-71
2023/03/31 08:52:44;;;;;;;4.20;2.03;;;12.30;99.90;;;;;;10391141;28;20700;-71
2023/03/31 08:57:58;;;;;;;4.53;2.10;;;12.30;99.90;;;;;;10387745;28;20712;-72
2023/03/31 09:03:01;;;;;;;2.90;1.60;;;12.90;99.90;;;;;;10389683;28;20210;-73
2023/03/31 09:08:22;;;;;;;3.47;2.07;;;15.50;99.90;;;;;;10387684;28;20215;-72
2023/03/31 09:13:54;;;;;;;6.37;2.30;;;15.90;99.90;;;;;;10387501;28;20312;-72
2023/03/31 09:19:00;;;;;;;8.73;3.27;;;14.90;99.90;;;;;;10422595;28;20631;-72
2023/03/31 09:24:30;;;;;;;6.47;2.70;;;13.80;99.90;;;;;;10392990;28;20217;-72
2023/03/31 09:29:39;;;;;;;7.33;2.80;;;13.20;99.90;;;;;;10380257;28;20340;-72
2023/03/31 09:34:40;;;;;;;6.27;2.97;;;13.10;99.90;;;;;;10389241;28;20233;-73
2023/03/31 09:39:41;;;;;;;10.23;3.00;;;13.10;99.90;;;;;;10386143;28;20229;-73
2023/03/31 09:44:48;;;;;;;7.27;2.77;;;15.30;99.90;;;;;;10388081;28;20218;-73
2023/03/31 09:49:49;;;;;;;6.90;2.80;;;16.30;99.90;;;;;;10385851;28;20270;-72
2023/03/31 09:54:51;;;;;;;7.30;2.70;;;15.60;99.90;;;;;;10390278;28;20775;-73
2023/03/31 10:00:00;;;;;;;7.20;2.53;;;14.70;99.90;;;;;;10393774;28;20225;-72
2023/03/31 10:05:02;;;;;;;8.83;2.53;;;13.60;99.90;;;;;;10390819;28;20221;-71
2023/03/31 10:10:09;;;;;;;3.53;1.50;;;12.40;99.90;;;;;;10387769;28;20217;-72
2023/03/31 10:15:19;;;;;;;7.70;2.20;;;12.00;99.90;;;;;;10391589;28;20240;-71
2023/03/31 10:20:47;;;;;;;7.93;1.63;;;12.20;99.90;;;;;;10385833;28;20688;-71
2023/03/31 10:25:48;;;;;;;6.47;1.67;;;12.70;99.90;;;;;;10385825;28;20208;-71
2023/03/31 10:30:52;;;;;;;5.23;1.60;;;13.10;99.90;;;;;;10389553;28;20304;-72
2023/03/31 10:35:58;;;;;;;6.87;1.60;;;13.00;99.90;;;;;;10388414;28;20223;-72
2023/03/31 10:40:59;;;;;;;7.60;1.90;;;12.90;99.90;;;;;;10383292;28;20323;-72
2023/03/31 10:46:00;;;;;;;6.40;1.87;;;12.70;99.90;;;;;;10393883;28;20232;-71
2023/03/31 10:51:13;;;;;;;8.07;2.07;;;12.60;99.90;;;;;;10389611;28;20790;-72
2023/03/31 10:56:34;;;;;;;6.57;2.00;;;12.40;99.90;;;;;;10377205;28;20240;-72
2023/03/31 11:01:55;;;;;;;8.07;2.37;;;12.40;99.90;;;;;;10406668;28;20241;-72
2023/03/31 11:07:05;;;;;;;5.23;2.00;;;12.60;99.90;;;;;;10385063;28;20223;-72
2023/03/31 11:12:20;;;;;;;8.10;2.30;;;13.10;99.90;;;;;;10383447;28;20688;-72
2023/03/31 11:18:04;;;;;;;7.60;2.60;;;13.90;99.90;;;;;;10404117;28;20227;-72
2023/03/31 11:23:29;;;;;;;9.93;2.10;;;17.40;99.90;;;;;;10383042;28;20219;-72
2023/03/31 11:28:58;;;;;;;8.30;2.40;;;18.80;99.90;;;;;;10414712;28;20593;-72
2023/03/31 11:34:05;;;;;;;8.13;2.37;;;18.70;99.90;;;;;;10380751;28;20330;-73
2023/03/31 11:39:24;;;;;;;9.93;2.50;;;18.50;99.90;;;;;;10422731;28;20236;-75
2023/03/31 11:44:31;;;;;;;8.10;2.60;;;17.30;99.90;;;;;;10374939;28;20267;-73
2023/03/31 11:49:38;;;;;;;7.60;2.80;;;16.20;99.90;;;;;;10383273;28;20227;-72
2023/03/31 11:54:52;;;;;;;10.23;3.00;;;15.90;99.90;;;;;;10419902;28;20875;-73
2023/03/31 12:00:05;;;;;;;9.77;2.93;;;16.10;99.90;;;;;;10392901;28;20724;-73
2023/03/31 12:05:09;;;;;;;5.20;2.10;;;16.50;99.90;;;;;;10395815;28;20222;-72
2023/03/31 12:10:28;;;;;;;11.20;2.70;;;16.70;99.90;;;;;;10392154;28;20399;-72
2023/03/31 12:15:38;;;;;;;9.07;2.30;;;16.50;99.90;;;;;;10383273;28;20301;-73
2023/03/31 12:21:00;;;;;;;10.10;2.50;;;16.20;99.90;;;;;;10427857;28;20232;-73
2023/03/31 12:26:29;;;;;;;5.90;1.63;;;16.60;99.90;;;;;;10429500;28;20225;-72
2023/03/31 12:31:34;;;;;;;7.37;2.20;;;16.60;99.90;;;;;;10415511;28;20309;-72
2023/03/31 12:37:12;;;;;;;8.63;1.93;;;15.70;99.90;;;;;;10395166;28;20222;-72
2023/03/31 12:42:34;;;;;;;7.27;1.97;;;14.50;99.90;;;;;;10393090;28;20673;-74
2023/03/31 12:47:58;;;;;;;7.33;2.20;;;13.60;99.90;;;;;;10418712;28;20220;-72
2023/03/31 12:53:27;;;;;;;9.97;2.10;;;13.30;99.90;;;;;;10388814;28;20751;-72
2023/03/31 12:58:28;;;;;;;7.27;2.10;;;13.30;99.90;;;;;;10380682;28;20228;-73
2023/03/31 13:03:36;;;;;;;5.90;1.40;;;13.60;99.90;;;;;;10386035;28;20227;-74
2023/03/31 13:08:54;;;;;;;7.87;1.70;;;14.50;99.90;;;;;;10392575;28;20233;-73
2023/03/31 13:14:03;;;;;;;7.93;1.50;;;15.30;99.90;;;;;;10381899;28;20282;-73
2023/03/31 13:19:04;;;;;;;4.70;1.97;;;15.30;99.90;;;;;;10388992;28;20292;-72
2023/03/31 13:24:06;;;;;;;6.23;1.67;;;15.20;99.90;;;;;;10392939;28;20712;-73
2023/03/31 13:29:16;;;;;;;4.40;1.10;;;14.50;99.90;;;;;;10381254;28;20709;-72
2023/03/31 13:34:16;;;;;;;1.70;0.90;;;13.20;99.90;;;;;;10418198;28;20236;-71
2023/03/31 13:39:50;;;;;;;2.70;0.90;;;12.30;99.90;;;;;;10425574;28;20235;-72
2023/03/31 13:44:54;;;;;;;1.30;0.70;;;11.80;99.90;;;;;;10371742;28;20283;-72
2023/03/31 13:50:18;;;;;;;2.90;0.67;;;11.70;99.90;;;;;;10417038;28;20684;-73
2023/03/31 13:55:53;;;;;;;1.63;0.50;;;11.80;99.90;;;;;;10386633;28;20344;-71
2023/03/31 14:01:02;;;;;;;1.53;0.50;;;12.20;99.90;;;;;;10387033;28;20308;-72
2023/03/31 14:06:31;;;;;;;1.23;0.50;;;12.60;99.90;;;;;;10388417;28;20715;-72
2023/03/31 14:11:31;;;;;;;3.33;0.93;;;13.10;99.90;;;;;;10411444;28;20754;-72
2023/03/31 14:16:39;;;;;;;1.67;1.57;;;13.40;99.90;;;;;;10391705;28;20229;-72
2023/03/31 14:21:53;;;;;;;1.83;1.37;;;13.60;99.90;;;;;;10387671;28;20569;-72
2023/03/31 14:27:24;;;;;;;1.00;0.90;;;13.90;99.90;;;;;;10388633;28;20252;-72
2023/03/31 14:32:49;;;;;;;4.30;1.10;;;14.20;99.90;;;;;;10377310;28;20229;-74
2023/03/31 14:37:50;;;;;;;3.67;1.23;;;14.30;99.90;;;;;;10420482;28;20229;-73
2023/03/31 14:42:51;;;;;;;4.30;1.20;;;14.70;99.90;;;;;;10382058;28;20239;-73
2023/03/31 14:48:02;;;;;;;3.63;1.10;;;14.80;99.90;;;;;;10392897;28;20228;-74
2023/03/31 14:53:03;;;;;;;2.77;1.00;;;14.60;99.90;;;;;;10389658;28;20240;-73
2023/03/31 14:58:06;;;;;;;3.53;1.57;;;14.20;99.90;;;;;;10386946;28;20255;-70
2023/03/31 15:03:12;;;;;;;3.73;1.07;;;14.10;99.90;;;;;;10385849;28;20287;-75
2023/03/31 15:08:18;;;;;;;5.43;1.43;;;14.10;99.90;;;;;;10381148;28;20299;-73
2023/03/31 15:14:00;;;;;;;5.63;1.50;;;14.10;99.90;;;;;;10386143;28;20225;-74
2023/03/31 15:19:09;;;;;;;4.53;0.80;;;13.70;99.90;;;;;;10383664;28;20224;-73
2023/03/31 15:24:12;;;;;;;3.13;0.90;;;12.80;99.90;;;;;;10384984;28;20220;-78
2023/03/31 15:29:20;;;;;;;3.80;0.90;;;12.20;99.90;;;;;;10382680;28;20310;-75
2023/03/31 15:34:32;;;;;;;3.73;0.90;;;12.10;99.90;;;;;;10384402;28;20282;-73
2023/03/31 15:39:35;;;;;;;3.53;1.10;;;12.30;99.90;;;;;;10389342;28;20275;-70
2023/03/31 15:44:45;;;;;;;1.87;0.70;;;12.70;99.90;;;;;;10392470;28;20247;-73
2023/03/31 15:49:56;;;;;;;2.10;0.70;;;13.00;99.90;;;;;;10383955;28;20298;-73
2023/03/31 15:54:56;;;;;;;2.93;0.80;;;12.90;99.90;;;;;;10418723;28;20338;-73
2023/03/31 15:59:59;;;;;;;4.23;0.73;;;12.90;99.90;;;;;;10412252;28;20882;-73
2023/03/31 16:05:00;;;;;;;5.60;0.90;;;12.80;99.90;;;;;;10390342;28;20221;-73
2023/03/31 16:10:03;;;;;;;2.07;0.73;;;12.80;99.90;;;;;;10383062;28;20225;-74
2023/03/31 16:15:12;;;;;;;5.13;1.30;;;12.80;99.90;;;;;;10379399;28;20233;-73
2023/03/31 16:20:21;;;;;;;4.90;1.00;;;12.70;99.90;;;;;;10385781;28;20642;-75
2023/03/31 16:25:24;;;;;;;8.60;1.60;;;12.60;99.90;;;;;;10386650;28;20284;-73
2023/03/31 16:30:42;;;;;;;5.23;1.63;;;12.50;99.90;;;;;;10380681;28;20258;-73
2023/03/31 16:35:47;;;;;;;6.73;1.70;;;12.40;99.90;;;;;;10382428;28;20307;-74
2023/03/31 16:40:51;;;;;;;5.53;1.70;;;12.30;99.90;;;;;;10378986;28;20247;-74
2023/03/31 16:45:57;;;;;;;5.87;1.93;;;12.30;99.90;;;;;;10386877;28;20584;-74
2023/03/31 16:50:59;;;;;;;4.50;1.40;;;12.30;99.90;;;;;;10391050;28;20232;-73
2023/03/31 16:56:00;;;;;;;7.47;1.57;;;12.20;99.90;;;;;;10394865;28;20300;-71
2023/03/31 17:01:02;;;;;;;6.77;1.50;;;12.10;99.90;;;;;;10387757;28;20228;-74
2023/03/31 17:06:10;;;;;;;5.47;1.43;;;12.00;99.90;;;;;;10391103;28;20221;-74
2023/03/31 17:11:13;;;;;;;7.23;1.47;;;11.80;99.90;;;;;;10385128;28;20296;-73
2023/03/31 17:16:14;;;;;;;4.70;1.20;;;11.80;99.90;;;;;;10388549;28;20228;-73
2023/03/31 17:21:17;;;;;;;5.13;1.43;;;11.80;99.90;;;;;;10387959;28;20244;-73
2023/03/31 17:26:18;;;;;;;5.50;1.53;;;11.80;99.90;;;;;;10395047;28;20229;-73
2023/03/31 17:31:20;;;;;;;5.47;2.00;;;11.80;99.90;;;;;;10426485;28;20220;-74
2023/03/31 17:36:21;;;;;;;4.70;2.17;;;11.80;99.90;;;;;;10385394;28;20225;-74
2023/03/31 17:41:28;;;;;;;7.93;2.07;;;11.80;99.90;;;;;;10388271;28;20594;-73
2023/03/31 17:46:28;;;;;;;6.07;1.90;;;11.90;99.90;;;;;;10411059;28;20213;-73
2023/03/31 17:51:33;;;;;;;7.03;2.03;;;11.90;99.90;;;;;;10418101;28;20623;-73
2023/03/31 17:56:33;;;;;;;4.43;1.53;;;11.90;99.90;;;;;;10386084;28;20237;-73
2023/03/31 18:01:34;;;;;;;8.30;2.60;;;12.00;99.90;;;;;;10390394;28;20216;-74
2023/03/31 18:06:35;;;;;;;5.40;1.60;;;12.00;99.90;;;;;;10418535;28;20267;-73
2023/03/31 18:11:36;;;;;;;6.43;1.67;;;11.90;99.90;;;;;;10387709;28;20217;-72
2023/03/31 18:16:37;;;;;;;9.03;2.10;;;11.70;99.90;;;;;;10383538;28;22189;-75
2023/03/31 18:21:37;;;;;;;6.53;2.10;;;11.40;99.90;;;;;;10378808;28;20217;-73
2023/03/31 18:26:41;;;;;;;5.40;1.67;;;11.10;99.90;;;;;;10393050;28;20228;-73
2023/03/31 18:31:44;;;;;;;5.20;1.40;;;10.90;99.90;;;;;;10388227;28;20252;-73
2023/03/31 18:36:45;;;;;;;5.97;1.57;;;10.80;99.90;;;;;;10384063;28;20304;-73
2023/03/31 18:41:47;;;;;;;5.03;1.30;;;10.80;99.90;;;;;;10416098;28;20295;-73
2023/03/31 18:46:48;;;;;;;3.17;1.20;;;10.80;99.90;;;;;;10417612;28;20274;-73
2023/03/31 18:51:49;;;;;;;5.57;1.27;;;10.80;99.90;;;;;;10383389;28;20214;-73
2023/03/31 18:56:50;;;;;;;4.33;1.50;;;10.80;99.90;;;;;;10381738;28;20711;-73
2023/03/31 19:01:51;;;;;;;3.80;1.23;;;10.80;99.90;;;;;;10387714;28;20248;-73
2023/03/31 19:06:52;;;;;;;3.93;1.00;;;10.90;99.90;;;;;;10383895;28;20633;-74
2023/03/31 19:11:53;;;;;;;3.90;1.40;;;11.00;99.90;;;;;;10387094;28;20594;-74
2023/03/31 19:16:54;;;;;;;4.00;1.37;;;11.10;99.90;;;;;;10383437;28;20225;-73
2023/03/31 19:21:55;;;;;;;5.40;1.70;;;11.10;99.90;;;;;;10387047;28;20213;-73
2023/03/31 19:26:56;;;;;;;5.73;1.77;;;11.20;99.90;;;;;;10419320;28;20216;-73
2023/03/31 19:32:00;;;;;;;4.83;1.40;;;11.20;99.90;;;;;;10385582;28;20237;-73
2023/03/31 19:37:03;;;;;;;7.53;1.50;;;11.20;99.90;;;;;;10386083;28;20304;-73
2023/03/31 19:42:04;;;;;;;7.43;1.40;;;11.20;99.90;;;;;;10420129;28;20630;-73
2023/03/31 19:47:05;;;;;;;3.37;1.00;;;11.20;99.90;;;;;;10382502;28;20225;-73
2023/03/31 19:52:05;;;;;;;2.53;1.03;;;11.00;99.90;;;;;;10380972;28;20308;-74
2023/03/31 19:57:07;;;;;;;3.50;1.20;;;11.00;99.90;;;;;;10408032;28;20224;-74
2023/03/31 20:02:11;;;;;;;7.17;1.70;;;10.90;99.90;;;;;;10384996;28;20274;-75
2023/03/31 20:07:12;;;;;;;3.33;0.90;;;10.90;99.90;;;;;;10383419;28;20221;-73
2023/03/31 20:12:13;;;;;;;3.07;1.20;;;10.70;99.90;;;;;;10380426;28;20672;-75
2023/03/31 20:17:16;;;;;;;6.33;1.70;;;10.70;99.90;;;;;;10391880;28;20719;-72
2023/03/31 20:22:17;;;;;;;2.93;1.23;;;10.70;99.90;;;;;;10389771;28;20767;-74
2023/03/31 20:27:17;;;;;;;2.93;0.93;;;10.80;99.90;;;;;;10396463;28;20278;-76
2023/03/31 20:32:18;;;;;;;6.57;1.47;;;10.70;99.90;;;;;;10388003;28;20224;-74
2023/03/31 20:37:18;;;;;;;3.33;1.10;;;10.50;99.90;;;;;;10391781;28;20588;-73
2023/03/31 20:42:20;;;;;;;4.43;1.27;;;10.50;99.90;;;;;;10385962;28;20216;-73
2023/03/31 20:47:20;;;;;;;3.67;0.83;;;10.50;99.90;;;;;;10397102;28;20361;-73
2023/03/31 20:52:21;;;;;;;3.83;1.23;;;10.50;99.90;;;;;;10388555;28;20282;-74
2023/03/31 20:57:24;;;;;;;3.93;1.40;;;10.50;99.90;;;;;;10391323;28;20915;-73
2023/03/31 21:02:26;;;;;;;2.57;1.00;;;10.60;99.90;;;;;;10380544;28;20752;-73
2023/03/31 21:07:28;;;;;;;5.30;1.23;;;10.60;99.90;;;;;;10394194;28;20358;-74
2023/03/31 21:12:29;;;;;;;5.67;1.43;;;10.60;99.90;;;;;;10388305;28;20225;-73
2023/03/31 21:17:29;;;;;;;3.47;0.77;;;10.50;99.90;;;;;;10426307;28;20235;-73
2023/03/31 21:22:30;;;;;;;5.57;1.47;;;10.60;99.90;;;;;;10385735;28;20216;-74
2023/03/31 21:27:30;;;;;;;4.57;1.47;;;10.50;99.90;;;;;;10389675;28;20708;-73
2023/03/31 21:32:34;;;;;;;4.70;1.10;;;10.60;99.90;;;;;;10393109;28;20308;-73
2023/03/31 21:37:35;;;;;;;3.93;1.60;;;10.70;99.90;;;;;;10388115;28;20228;-73
2023/03/31 21:42:36;;;;;;;3.77;1.20;;;10.70;99.90;;;;;;10395842;28;20209;-74
2023/03/31 21:47:37;;;;;;;6.33;1.20;;;10.80;99.90;;;;;;10392117;28;20212;-73
2023/03/31 21:52:37;;;;;;;9.27;1.57;;;10.80;99.90;;;;;;10423537;28;20267;-73
2023/03/31 21:57:38;;;;;;;3.53;1.47;;;10.80;99.90;;;;;;10384868;28;20633;-73
2023/03/31 22:02:39;;;;;;;2.63;0.90;;;10.80;99.90;;;;;;10387994;28;20608;-74
2023/03/31 22:07:40;;;;;;;3.80;1.00;;;10.70;99.90;;;;;;10389753;28;20651;-73
2023/03/31 22:12:40;;;;;;;3.83;1.10;;;10.70;99.90;;;;;;10411911;28;20264;-73
2023/03/31 22:17:41;;;;;;;3.47;1.20;;;10.70;99.90;;;;;;10390992;28;20262;-74
2023/03/31 22:22:41;;;;;;;5.87;2.13;;;10.70;99.90;;;;;;10384915;28;20221;-73
2023/03/31 22:27:42;;;;;;;3.47;1.10;;;10.70;99.90;;;;;;10385648;28;20692;-73
2023/03/31 22:32:43;;;;;;;2.87;1.00;;;10.70;99.90;;;;;;10418836;28;20244;-72
2023/03/31 22:37:43;;;;;;;5.03;1.23;;;10.70;99.90;;;;;;10386629;28;20313;-73
2023/03/31 22:42:44;;;;;;;4.30;1.27;;;10.70;99.90;;;;;;10380337;28;20636;-73
2023/03/31 22:47:44;;;;;;;4.43;1.20;;;10.70;99.90;;;;;;10383679;28;20212;-73
2023/03/31 22:52:45;;;;;;;4.60;1.53;;;10.80;99.90;;;;;;10386463;28;20235;-73
2023/03/31 22:57:46;;;;;;;6.67;1.50;;;10.80;99.90;;;;;;10417299;28;20224;-73
2023/03/31 23:02:46;;;;;;;4.53;1.50;;;10.90;99.90;;;;;;10391235;28;20601;-73
2023/03/31 23:07:47;;;;;;;4.10;1.17;;;11.00;99.90;;;;;;10416100;28;20629;-72
2023/03/31 23:12:47;;;;;;;4.27;1.03;;;10.90;99.90;;;;;;10383436;28;20691;-74
2023/03/31 23:17:48;;;;;;;5.57;1.77;;;10.90;99.90;;;;;;10385105;28;20228;-73
2023/03/31 23:22:51;;;;;;;4.50;1.20;;;10.90;99.90;;;;;;10388654;28;20312;-74
2023/03/31 23:27:52;;;;;;;5.17;1.20;;;10.80;99.90;;;;;;10387397;28;20213;-73
2023/03/31 23:32:53;;;;;;;4.37;1.50;;;10.70;99.90;;;;;;10418899;28;20704;-72
2023/03/31 23:37:53;;;;;;;3.70;1.40;;;10.70;99.90;;;;;;10417950;28;20635;-73
2023/03/31 23:42:54;;;;;;;4.73;1.50;;;10.70;99.90;;;;;;10386896;28;20296;-73
2023/03/31 23:47:55;;;;;;;5.60;1.93;;;10.70;99.90;;;;;;10381967;28;20243;-73
2023/03/31 23:52:58;;;;;;;8.20;1.77;;;10.70;99.90;;;;;;10392932;28;20265;-73
2023/03/31 23:57:58;;;;;;;6.00;1.60;;;10.70;99.90;;;;;;10426961;28;20707;-73
